sensor_id;sensor_type;location;lat;lon;timestamp;temperature;humidity
64634;DHT22;51043;52.406;9.690;2023-10-08T00:01:09;12.70;99.90
64634;DHT22;51043;52.406;9.690;2023-10-08T00:03:39;12.70;99.90
64634;DHT22;51043;52.406;9.690;2023-10-08T00:06:18;12.70;99.90
64634;DHT22;51043;52.406;9.690;2023-10-08T00:08:50;12.70;99.90
64634;DHT22;51043;52.406;9.690;2023-10-08T00:11:20;12.70;99.90
64634;DHT22;51043;52.406;9.690;2023-10-08T00:13:57;12.60;99.90
64634;DHT22;51043;52.406;9.690;2023-10-08T00:16:27;12.60;99.90
64634;DHT22;51043;52.406;9.690;2023-10-08T00:18:57;12.60;99.90
64634;DHT22;51043;52.406;9.690;2023-10-08T00:21:35;12.50;99.90
64634;DHT22;51043;52.406;9.690;2023-10-08T00:24:06;12.40;99.90
64634;DHT22;51043;52.406;9.690;2023-10-08T00:26:38;12.40;99.90
64634;DHT22;51043;52.406;9.690;2023-10-08T00:29:09;12.40;99.90
64634;DHT22;51043;52.406;9.690;2023-10-08T00:31:44;12.40;99.90
64634;DHT22;51043;52.406;9.690;2023-10-08T00:34:12;12.30;99.90
64634;DHT22;51043;52.406;9.690;2023-10-08T00:36:43;12.30;99.90
64634;DHT22;51043;52.406;9.690;2023-10-08T00:39:12;12.20;99.90
64634;DHT22;51043;52.406;9.690;2023-10-08T00:41:45;12.20;99.90
64634;DHT22;51043;52.406;9.690;2023-10-08T00:44:14;12.10;99.90
64634;DHT22;51043;52.406;9.690;2023-10-08T00:46:43;12.10;99.90
64634;DHT22;51043;52.406;9.690;2023-10-08T00:49:16;11.90;99.90
64634;DHT22;51043;52.406;9.690;2023-10-08T00:52:10;11.80;99.90
64634;DHT22;51043;52.406;9.690;2023-10-08T00:54:53;11.80;99.90
64634;DHT22;51043;52.406;9.690;2023-10-08T00:57:40;11.80;99.90
64634;DHT22;51043;52.406;9.690;2023-10-08T01:00:11;11.80;99.90
64634;DHT22;51043;52.406;9.690;2023-10-08T01:02:48;11.80;99.90
64634;DHT22;51043;52.406;9.690;2023-10-08T01:05:22;11.80;99.90
64634;DHT22;51043;52.406;9.690;2023-10-08T01:08:04;11.80;99.90
64634;DHT22;51043;52.406;9.690;2023-10-08T01:10:35;11.80;99.90
64634;DHT22;51043;52.406;9.690;2023-10-08T01:13:08;11.80;99.90
64634;DHT22;51043;52.406;9.690;2023-10-08T01:15:43;11.70;99.90
64634;DHT22;51043;52.406;9.690;2023-10-08T01:18:12;11.70;99.90
64634;DHT22;51043;52.406;9.690;2023-10-08T01:20:45;11.60;99.90
64634;DHT22;51043;52.406;9.690;2023-10-08T01:23:22;11.60;99.90
64634;DHT22;51043;52.406;9.690;2023-10-08T01:25:54;11.50;99.90
64634;DHT22;51043;52.406;9.690;2023-10-08T01:28:37;11.60;99.90
64634;DHT22;51043;52.406;9.690;2023-10-08T01:31:09;11.50;99.90
64634;DHT22;51043;52.406;9.690;2023-10-08T01:33:42;11.50;99.90
64634;DHT22;51043;52.406;9.690;2023-10-08T01:36:16;11.40;99.90
64634;DHT22;51043;52.406;9.690;2023-10-08T01:38:48;11.40;99.90
64634;DHT22;51043;52.406;9.690;2023-10-08T01:41:17;11.40;99.90
64634;DHT22;51043;52.406;9.690;2023-10-08T01:43:57;11.30;99.90
64634;DHT22;51043;52.406;9.690;2023-10-08T01:46:26;11.40;99.90
64634;DHT22;51043;52.406;9.690;2023-10-08T01:48:55;11.40;99.90
64634;DHT22;51043;52.406;9.690;2023-10-08T01:51:31;11.40;99.90
64634;DHT22;51043;52.406;9.690;2023-10-08T01:54:07;11.40;99.90
64634;DHT22;51043;52.406;9.690;2023-10-08T01:56:38;11.30;99.90
64634;DHT22;51043;52.406;9.690;2023-10-08T01:59:09;11.30;99.90
64634;DHT22;51043;52.406;9.690;2023-10-08T02:01:39;11.30;99.90
64634;DHT22;51043;52.406;9.690;2023-10-08T02:04:08;11.50;99.90
64634;DHT22;51043;52.406;9.690;2023-10-08T02:06:40;11.40;99.90
64634;DHT22;51043;52.406;9.690;2023-10-08T02:09:09;11.40;99.90
64634;DHT22;51043;52.406;9.690;2023-10-08T02:11:44;11.40;99.90
64634;DHT22;51043;52.406;9.690;2023-10-08T02:14:16;11.40;99.90
64634;DHT22;51043;52.406;9.690;2023-10-08T02:16:45;11.40;99.90
64634;DHT22;51043;52.406;9.690;2023-10-08T02:19:14;11.40;99.90
64634;DHT22;51043;52.406;9.690;2023-10-08T02:21:45;11.40;99.90
64634;DHT22;51043;52.406;9.690;2023-10-08T02:24:15;11.40;99.90
64634;DHT22;51043;52.406;9.690;2023-10-08T02:26:44;11.50;99.90
64634;DHT22;51043;52.406;9.690;2023-10-08T02:29:12;11.50;99.90
64634;DHT22;51043;52.406;9.690;2023-10-08T02:31:41;11.50;99.90
64634;DHT22;51043;52.406;9.690;2023-10-08T02:34:10;11.50;99.90
64634;DHT22;51043;52.406;9.690;2023-10-08T02:36:40;11.50;99.90
64634;DHT22;51043;52.406;9.690;2023-10-08T02:39:09;11.40;99.90
64634;DHT22;51043;52.406;9.690;2023-10-08T02:41:49;11.40;99.90
64634;DHT22;51043;52.406;9.690;2023-10-08T02:44:18;11.40;99.90
64634;DHT22;51043;52.406;9.690;2023-10-08T02:46:49;11.40;99.90
64634;DHT22;51043;52.406;9.690;2023-10-08T02:49:24;11.50;99.90
64634;DHT22;51043;52.406;9.690;2023-10-08T02:51:58;11.60;99.90
64634;DHT22;51043;52.406;9.690;2023-10-08T02:54:26;11.60;99.90
64634;DHT22;51043;52.406;9.690;2023-10-08T02:57:06;11.60;99.90
64634;DHT22;51043;52.406;9.690;2023-10-08T02:59:41;11.60;99.90
64634;DHT22;51043;52.406;9.690;2023-10-08T03:02:13;11.60;99.90
64634;DHT22;51043;52.406;9.690;2023-10-08T03:04:45;11.60;99.90
64634;DHT22;51043;52.406;9.690;2023-10-08T03:07:14;11.50;99.90
64634;DHT22;51043;52.406;9.690;2023-10-08T03:09:51;11.50;99.90
64634;DHT22;51043;52.406;9.690;2023-10-08T03:12:32;11.50;99.90
64634;DHT22;51043;52.406;9.690;2023-10-08T03:15:01;11.50;99.90
64634;DHT22;51043;52.406;9.690;2023-10-08T03:17:40;11.50;99.90
64634;DHT22;51043;52.406;9.690;2023-10-08T03:20:16;11.50;99.90
64634;DHT22;51043;52.406;9.690;2023-10-08T03:23:11;11.50;99.90
64634;DHT22;51043;52.406;9.690;2023-10-08T03:25:57;11.50;99.90
64634;DHT22;51043;52.406;9.690;2023-10-08T03:28:30;11.50;99.90
64634;DHT22;51043;52.406;9.690;2023-10-08T03:31:02;11.50;99.90
64634;DHT22;51043;52.406;9.690;2023-10-08T03:33:33;11.50;99.90
64634;DHT22;51043;52.406;9.690;2023-10-08T03:36:03;11.50;99.90
64634;DHT22;51043;52.406;9.690;2023-10-08T03:38:41;11.40;99.90
64634;DHT22;51043;52.406;9.690;2023-10-08T03:41:22;11.30;99.90
64634;DHT22;51043;52.406;9.690;2023-10-08T03:43:56;11.40;99.90
64634;DHT22;51043;52.406;9.690;2023-10-08T03:46:29;11.40;99.90
64634;DHT22;51043;52.406;9.690;2023-10-08T03:48:58;11.40;99.90
64634;DHT22;51043;52.406;9.690;2023-10-08T03:51:32;11.40;99.90
64634;DHT22;51043;52.406;9.690;2023-10-08T03:54:07;11.40;99.90
64634;DHT22;51043;52.406;9.690;2023-10-08T03:56:45;11.40;99.90
64634;DHT22;51043;52.406;9.690;2023-10-08T03:59:19;11.40;99.90
64634;DHT22;51043;52.406;9.690;2023-10-08T04:01:59;11.40;99.90
64634;DHT22;51043;52.406;9.690;2023-10-08T04:04:42;11.40;99.90
64634;DHT22;51043;52.406;9.690;2023-10-08T04:07:25;11.40;99.90
64634;DHT22;51043;52.406;9.690;2023-10-08T04:10:10;11.40;99.90
64634;DHT22;51043;52.406;9.690;2023-10-08T04:13:07;11.40;99.90
64634;DHT22;51043;52.406;9.690;2023-10-08T04:15:38;11.30;99.90
64634;DHT22;51043;52.406;9.690;2023-10-08T04:18:10;11.30;99.90
64634;DHT22;51043;52.406;9.690;2023-10-08T04:20:47;11.30;99.90
64634;DHT22;51043;52.406;9.690;2023-10-08T04:23:34;11.30;99.90
64634;DHT22;51043;52.406;9.690;2023-10-08T04:26:09;11.20;99.90
64634;DHT22;51043;52.406;9.690;2023-10-08T04:28:38;11.20;99.90
64634;DHT22;51043;52.406;9.690;2023-10-08T04:31:09;11.30;99.90
64634;DHT22;51043;52.406;9.690;2023-10-08T04:33:44;11.30;99.90
64634;DHT22;51043;52.406;9.690;2023-10-08T04:36:14;11.30;99.90
64634;DHT22;51043;52.406;9.690;2023-10-08T04:38:45;11.30;99.90
64634;DHT22;51043;52.406;9.690;2023-10-08T04:41:15;11.30;99.90
64634;DHT22;51043;52.406;9.690;2023-10-08T04:43:46;11.20;99.90
64634;DHT22;51043;52.406;9.690;2023-10-08T04:46:18;11.20;99.90
64634;DHT22;51043;52.406;9.690;2023-10-08T04:49:07;11.30;99.90
64634;DHT22;51043;52.406;9.690;2023-10-08T04:51:45;11.20;99.90
64634;DHT22;51043;52.406;9.690;2023-10-08T04:54:16;11.20;99.90
64634;DHT22;51043;52.406;9.690;2023-10-08T04:56:45;11.20;99.90
64634;DHT22;51043;52.406;9.690;2023-10-08T04:59:17;11.20;99.90
64634;DHT22;51043;52.406;9.690;2023-10-08T05:01:50;11.20;99.90
64634;DHT22;51043;52.406;9.690;2023-10-08T05:04:48;11.10;99.90
64634;DHT22;51043;52.406;9.690;2023-10-08T05:07:49;11.10;99.90
64634;DHT22;51043;52.406;9.690;2023-10-08T05:10:44;11.10;99.90
64634;DHT22;51043;52.406;9.690;2023-10-08T05:13:28;11.10;99.90
64634;DHT22;51043;52.406;9.690;2023-10-08T05:16:12;11.20;99.90
64634;DHT22;51043;52.406;9.690;2023-10-08T05:18:58;11.20;99.90
64634;DHT22;51043;52.406;9.690;2023-10-08T05:21:52;11.30;99.90
64634;DHT22;51043;52.406;9.690;2023-10-08T05:24:29;11.30;99.90
64634;DHT22;51043;52.406;9.690;2023-10-08T05:27:07;11.20;99.90
64634;DHT22;51043;52.406;9.690;2023-10-08T05:30:08;11.30;99.90
64634;DHT22;51043;52.406;9.690;2023-10-08T05:32:43;11.30;99.90
64634;DHT22;51043;52.406;9.690;2023-10-08T05:35:44;11.20;99.90
64634;DHT22;51043;52.406;9.690;2023-10-08T05:38:22;11.10;99.90
64634;DHT22;51043;52.406;9.690;2023-10-08T05:40:52;11.20;99.90
64634;DHT22;51043;52.406;9.690;2023-10-08T05:43:44;11.20;99.90
64634;DHT22;51043;52.406;9.690;2023-10-08T05:46:30;11.20;99.90
64634;DHT22;51043;52.406;9.690;2023-10-08T05:49:14;11.30;99.90
64634;DHT22;51043;52.406;9.690;2023-10-08T05:52:07;11.30;99.90
64634;DHT22;51043;52.406;9.690;2023-10-08T05:55:10;11.30;99.90
64634;DHT22;51043;52.406;9.690;2023-10-08T05:57:53;11.30;99.90
64634;DHT22;51043;52.406;9.690;2023-10-08T06:00:32;11.30;99.90
64634;DHT22;51043;52.406;9.690;2023-10-08T06:03:28;11.30;99.90
64634;DHT22;51043;52.406;9.690;2023-10-08T06:06:26;11.30;99.90
64634;DHT22;51043;52.406;9.690;2023-10-08T06:09:06;11.40;99.90
64634;DHT22;51043;52.406;9.690;2023-10-08T06:12:04;11.40;99.90
64634;DHT22;51043;52.406;9.690;2023-10-08T06:14:46;11.40;99.90
64634;DHT22;51043;52.406;9.690;2023-10-08T06:17:24;11.30;99.90
64634;DHT22;51043;52.406;9.690;2023-10-08T06:20:05;11.40;99.90
64634;DHT22;51043;52.406;9.690;2023-10-08T06:22:36;11.50;99.90
64634;DHT22;51043;52.406;9.690;2023-10-08T06:25:06;11.50;99.90
64634;DHT22;51043;52.406;9.690;2023-10-08T06:27:47;11.60;99.90
64634;DHT22;51043;52.406;9.690;2023-10-08T06:30:17;11.60;99.90
64634;DHT22;51043;52.406;9.690;2023-10-08T06:32:45;11.60;99.90
64634;DHT22;51043;52.406;9.690;2023-10-08T06:35:15;11.70;99.90
64634;DHT22;51043;52.406;9.690;2023-10-08T06:37:45;11.70;99.90
64634;DHT22;51043;52.406;9.690;2023-10-08T06:40:16;11.70;99.90
64634;DHT22;51043;52.406;9.690;2023-10-08T06:42:59;11.80;99.90
64634;DHT22;51043;52.406;9.690;2023-10-08T06:45:39;11.80;99.90
64634;DHT22;51043;52.406;9.690;2023-10-08T06:48:10;11.80;99.90
64634;DHT22;51043;52.406;9.690;2023-10-08T06:50:46;12.00;99.90
64634;DHT22;51043;52.406;9.690;2023-10-08T06:53:14;12.00;99.90
64634;DHT22;51043;52.406;9.690;2023-10-08T06:55:47;12.10;99.90
64634;DHT22;51043;52.406;9.690;2023-10-08T06:58:23;12.20;99.90
64634;DHT22;51043;52.406;9.690;2023-10-08T07:00:53;12.40;99.90
64634;DHT22;51043;52.406;9.690;2023-10-08T07:03:22;12.50;99.90
64634;DHT22;51043;52.406;9.690;2023-10-08T07:05:52;12.60;99.90
64634;DHT22;51043;52.406;9.690;2023-10-08T07:08:32;12.60;99.90
64634;DHT22;51043;52.406;9.690;2023-10-08T07:11:03;12.80;99.90
64634;DHT22;51043;52.406;9.690;2023-10-08T07:13:35;12.80;99.90
64634;DHT22;51043;52.406;9.690;2023-10-08T07:16:04;12.80;99.90
64634;DHT22;51043;52.406;9.690;2023-10-08T07:18:35;13.10;99.90
64634;DHT22;51043;52.406;9.690;2023-10-08T07:21:08;13.50;99.90
64634;DHT22;51043;52.406;9.690;2023-10-08T07:23:40;13.60;99.90
64634;DHT22;51043;52.406;9.690;2023-10-08T07:26:24;13.80;99.90
64634;DHT22;51043;52.406;9.690;2023-10-08T07:28:57;13.90;99.90
64634;DHT22;51043;52.406;9.690;2023-10-08T07:31:25;14.10;99.90
64634;DHT22;51043;52.406;9.690;2023-10-08T07:33:56;14.30;99.90
64634;DHT22;51043;52.406;9.690;2023-10-08T07:36:25;14.30;99.90
64634;DHT22;51043;52.406;9.690;2023-10-08T07:38:54;14.40;99.90
64634;DHT22;51043;52.406;9.690;2023-10-08T07:41:27;14.30;99.90
64634;DHT22;51043;52.406;9.690;2023-10-08T07:43:58;14.20;99.90
64634;DHT22;51043;52.406;9.690;2023-10-08T07:46:27;14.20;99.90
64634;DHT22;51043;52.406;9.690;2023-10-08T07:48:56;14.20;99.90
64634;DHT22;51043;52.406;9.690;2023-10-08T07:51:32;14.30;99.90
64634;DHT22;51043;52.406;9.690;2023-10-08T07:54:04;14.80;99.90
64634;DHT22;51043;52.406;9.690;2023-10-08T07:56:39;15.60;99.90
64634;DHT22;51043;52.406;9.690;2023-10-08T07:59:11;16.20;99.90
64634;DHT22;51043;52.406;9.690;2023-10-08T08:01:44;16.60;99.90
64634;DHT22;51043;52.406;9.690;2023-10-08T08:04:14;16.70;99.90
64634;DHT22;51043;52.406;9.690;2023-10-08T08:06:51;16.70;99.90
64634;DHT22;51043;52.406;9.690;2023-10-08T08:09:22;16.50;99.90
64634;DHT22;51043;52.406;9.690;2023-10-08T08:11:50;16.50;99.90
64634;DHT22;51043;52.406;9.690;2023-10-08T08:14:20;16.60;99.90
64634;DHT22;51043;52.406;9.690;2023-10-08T08:16:51;16.60;99.90
64634;DHT22;51043;52.406;9.690;2023-10-08T08:19:20;16.50;99.90
64634;DHT22;51043;52.406;9.690;2023-10-08T08:21:56;16.10;99.90
64634;DHT22;51043;52.406;9.690;2023-10-08T08:24:30;15.80;99.90
64634;DHT22;51043;52.406;9.690;2023-10-08T08:27:03;15.60;99.90
64634;DHT22;51043;52.406;9.690;2023-10-08T08:29:39;15.60;99.90
64634;DHT22;51043;52.406;9.690;2023-10-08T08:32:12;15.70;99.90
64634;DHT22;51043;52.406;9.690;2023-10-08T08:34:45;15.70;99.90
64634;DHT22;51043;52.406;9.690;2023-10-08T08:37:17;15.90;99.90
64634;DHT22;51043;52.406;9.690;2023-10-08T08:39:46;16.00;99.90
64634;DHT22;51043;52.406;9.690;2023-10-08T08:42:15;16.10;99.90
64634;DHT22;51043;52.406;9.690;2023-10-08T08:44:47;16.30;99.90
64634;DHT22;51043;52.406;9.690;2023-10-08T08:47:18;16.20;99.90
64634;DHT22;51043;52.406;9.690;2023-10-08T08:49:52;16.40;99.90
64634;DHT22;51043;52.406;9.690;2023-10-08T08:52:22;16.40;99.90
64634;DHT22;51043;52.406;9.690;2023-10-08T08:54:50;16.40;99.90
64634;DHT22;51043;52.406;9.690;2023-10-08T08:57:20;16.50;99.90
64634;DHT22;51043;52.406;9.690;2023-10-08T08:59:58;16.60;99.90
64634;DHT22;51043;52.406;9.690;2023-10-08T09:02:27;16.80;99.90
64634;DHT22;51043;52.406;9.690;2023-10-08T09:04:57;16.90;99.90
64634;DHT22;51043;52.406;9.690;2023-10-08T09:07:31;17.00;99.90
64634;DHT22;51043;52.406;9.690;2023-10-08T09:10:00;17.10;99.90
64634;DHT22;51043;52.406;9.690;2023-10-08T09:12:29;17.10;99.90
64634;DHT22;51043;52.406;9.690;2023-10-08T09:15:03;16.90;99.90
64634;DHT22;51043;52.406;9.690;2023-10-08T09:17:44;16.80;99.90
64634;DHT22;51043;52.406;9.690;2023-10-08T09:20:16;16.70;99.90
64634;DHT22;51043;52.406;9.690;2023-10-08T09:23:06;16.60;99.90
64634;DHT22;51043;52.406;9.690;2023-10-08T09:25:39;16.80;99.90
64634;DHT22;51043;52.406;9.690;2023-10-08T09:28:11;16.70;99.90
64634;DHT22;51043;52.406;9.690;2023-10-08T09:30:49;16.60;99.90
64634;DHT22;51043;52.406;9.690;2023-10-08T09:33:28;16.60;99.90
64634;DHT22;51043;52.406;9.690;2023-10-08T09:35:57;16.50;99.90
64634;DHT22;51043;52.406;9.690;2023-10-08T09:38:32;16.70;99.90
64634;DHT22;51043;52.406;9.690;2023-10-08T09:41:02;17.00;99.90
64634;DHT22;51043;52.406;9.690;2023-10-08T09:43:31;17.30;99.90
64634;DHT22;51043;52.406;9.690;2023-10-08T09:46:15;17.70;99.90
64634;DHT22;51043;52.406;9.690;2023-10-08T09:48:49;17.90;99.90
64634;DHT22;51043;52.406;9.690;2023-10-08T09:51:20;18.10;99.90
64634;DHT22;51043;52.406;9.690;2023-10-08T09:53:52;18.30;99.90
64634;DHT22;51043;52.406;9.690;2023-10-08T09:56:31;18.80;99.90
64634;DHT22;51043;52.406;9.690;2023-10-08T09:59:01;19.50;99.90
64634;DHT22;51043;52.406;9.690;2023-10-08T10:01:31;19.80;99.90
64634;DHT22;51043;52.406;9.690;2023-10-08T10:04:06;19.50;99.90
64634;DHT22;51043;52.406;9.690;2023-10-08T10:06:34;19.40;99.90
64634;DHT22;51043;52.406;9.690;2023-10-08T10:09:05;19.50;99.90
64634;DHT22;51043;52.406;9.690;2023-10-08T10:11:36;19.60;99.90
64634;DHT22;51043;52.406;9.690;2023-10-08T10:14:05;20.10;99.90
64634;DHT22;51043;52.406;9.690;2023-10-08T10:16:37;20.40;99.90
64634;DHT22;51043;52.406;9.690;2023-10-08T10:19:17;21.10;99.90
64634;DHT22;51043;52.406;9.690;2023-10-08T10:21:48;21.60;99.90
64634;DHT22;51043;52.406;9.690;2023-10-08T10:24:32;21.80;99.90
64634;DHT22;51043;52.406;9.690;2023-10-08T10:27:10;21.40;99.90
64634;DHT22;51043;52.406;9.690;2023-10-08T10:29:41;21.20;99.90
64634;DHT22;51043;52.406;9.690;2023-10-08T10:32:20;21.30;99.90
64634;DHT22;51043;52.406;9.690;2023-10-08T10:34:49;22.60;99.90
64634;DHT22;51043;52.406;9.690;2023-10-08T10:37:24;23.40;99.90
64634;DHT22;51043;52.406;9.690;2023-10-08T10:40:00;23.20;99.90
64634;DHT22;51043;52.406;9.690;2023-10-08T10:42:36;22.30;99.90
64634;DHT22;51043;52.406;9.690;2023-10-08T10:45:14;21.60;99.90
64634;DHT22;51043;52.406;9.690;2023-10-08T10:48:04;20.90;99.90
64634;DHT22;51043;52.406;9.690;2023-10-08T10:50:40;20.00;99.90
64634;DHT22;51043;52.406;9.690;2023-10-08T10:53:37;19.30;99.90
64634;DHT22;51043;52.406;9.690;2023-10-08T10:56:12;18.90;99.90
64634;DHT22;51043;52.406;9.690;2023-10-08T10:58:47;18.80;99.90
64634;DHT22;51043;52.406;9.690;2023-10-08T11:01:26;19.40;99.90
64634;DHT22;51043;52.406;9.690;2023-10-08T11:03:58;20.40;99.90
64634;DHT22;51043;52.406;9.690;2023-10-08T11:06:26;21.60;99.90
64634;DHT22;51043;52.406;9.690;2023-10-08T11:08:55;23.60;97.80
64634;DHT22;51043;52.406;9.690;2023-10-08T11:11:26;24.90;97.50
64634;DHT22;51043;52.406;9.690;2023-10-08T11:13:57;25.50;95.00
64634;DHT22;51043;52.406;9.690;2023-10-08T11:16:27;25.30;95.60
64634;DHT22;51043;52.406;9.690;2023-10-08T11:19:02;25.00;93.10
64634;DHT22;51043;52.406;9.690;2023-10-08T11:21:51;25.00;94.20
64634;DHT22;51043;52.406;9.690;2023-10-08T11:24:36;24.90;93.60
64634;DHT22;51043;52.406;9.690;2023-10-08T11:27:10;24.70;93.60
64634;DHT22;51043;52.406;9.690;2023-10-08T11:29:45;25.00;91.60
64634;DHT22;51043;52.406;9.690;2023-10-08T11:32:29;24.80;90.40
64634;DHT22;51043;52.406;9.690;2023-10-08T11:35:01;23.90;91.60
64634;DHT22;51043;52.406;9.690;2023-10-08T11:37:46;23.90;91.40
64634;DHT22;51043;52.406;9.690;2023-10-08T11:40:25;25.50;91.10
64634;DHT22;51043;52.406;9.690;2023-10-08T11:42:57;27.00;89.40
64634;DHT22;51043;52.406;9.690;2023-10-08T11:45:26;27.90;88.50
64634;DHT22;51043;52.406;9.690;2023-10-08T11:47:55;28.50;83.20
64634;DHT22;51043;52.406;9.690;2023-10-08T11:50:26;28.60;81.10
64634;DHT22;51043;52.406;9.690;2023-10-08T11:53:05;28.20;79.20
64634;DHT22;51043;52.406;9.690;2023-10-08T11:55:35;27.60;77.70
64634;DHT22;51043;52.406;9.690;2023-10-08T11:58:06;27.10;75.90
64634;DHT22;51043;52.406;9.690;2023-10-08T12:00:41;26.20;78.40
64634;DHT22;51043;52.406;9.690;2023-10-08T12:03:16;25.80;80.40
64634;DHT22;51043;52.406;9.690;2023-10-08T12:05:48;25.70;77.10
64634;DHT22;51043;52.406;9.690;2023-10-08T12:08:26;25.80;81.00
64634;DHT22;51043;52.406;9.690;2023-10-08T12:10:55;25.50;82.60
64634;DHT22;51043;52.406;9.690;2023-10-08T12:13:27;24.60;81.30
64634;DHT22;51043;52.406;9.690;2023-10-08T12:15:55;23.70;83.30
64634;DHT22;51043;52.406;9.690;2023-10-08T12:18:33;23.00;88.40
64634;DHT22;51043;52.406;9.690;2023-10-08T12:21:08;22.30;87.70
64634;DHT22;51043;52.406;9.690;2023-10-08T12:23:42;21.60;89.80
64634;DHT22;51043;52.406;9.690;2023-10-08T12:26:20;20.80;90.80
64634;DHT22;51043;52.406;9.690;2023-10-08T12:28:56;20.30;93.60
64634;DHT22;51043;52.406;9.690;2023-10-08T12:31:27;19.80;92.30
64634;DHT22;51043;52.406;9.690;2023-10-08T12:33:57;19.60;92.90
64634;DHT22;51043;52.406;9.690;2023-10-08T12:36:28;19.60;93.30
64634;DHT22;51043;52.406;9.690;2023-10-08T12:39:00;19.60;93.60
64634;DHT22;51043;52.406;9.690;2023-10-08T12:41:35;19.70;93.50
64634;DHT22;51043;52.406;9.690;2023-10-08T12:44:05;19.30;94.00
64634;DHT22;51043;52.406;9.690;2023-10-08T12:46:35;19.20;94.20
64634;DHT22;51043;52.406;9.690;2023-10-08T12:49:03;19.20;94.70
64634;DHT22;51043;52.406;9.690;2023-10-08T12:51:34;19.30;96.70
64634;DHT22;51043;52.406;9.690;2023-10-08T12:54:08;19.40;95.90
64634;DHT22;51043;52.406;9.690;2023-10-08T12:56:38;19.20;94.90
64634;DHT22;51043;52.406;9.690;2023-10-08T12:59:12;18.80;95.30
64634;DHT22;51043;52.406;9.690;2023-10-08T13:01:48;18.40;95.50
64634;DHT22;51043;52.406;9.690;2023-10-08T13:04:21;18.30;97.40
64634;DHT22;51043;52.406;9.690;2023-10-08T13:06:58;18.20;96.50
64634;DHT22;51043;52.406;9.690;2023-10-08T13:09:31;18.10;97.00
64634;DHT22;51043;52.406;9.690;2023-10-08T13:12:07;17.90;96.20
64634;DHT22;51043;52.406;9.690;2023-10-08T13:14:37;17.70;97.30
64634;DHT22;51043;52.406;9.690;2023-10-08T13:17:05;17.70;97.50
64634;DHT22;51043;52.406;9.690;2023-10-08T13:19:37;17.70;97.10
64634;DHT22;51043;52.406;9.690;2023-10-08T13:22:07;17.80;98.20
64634;DHT22;51043;52.406;9.690;2023-10-08T13:24:36;17.90;96.70
64634;DHT22;51043;52.406;9.690;2023-10-08T13:27:06;18.10;96.90
64634;DHT22;51043;52.406;9.690;2023-10-08T13:29:40;18.20;97.40
64634;DHT22;51043;52.406;9.690;2023-10-08T13:32:10;18.30;97.10
64634;DHT22;51043;52.406;9.690;2023-10-08T13:34:44;18.30;97.90
64634;DHT22;51043;52.406;9.690;2023-10-08T13:37:14;18.30;95.90
64634;DHT22;51043;52.406;9.690;2023-10-08T13:39:43;18.20;97.00
64634;DHT22;51043;52.406;9.690;2023-10-08T13:42:11;18.10;95.30
64634;DHT22;51043;52.406;9.690;2023-10-08T13:44:46;18.00;96.10
64634;DHT22;51043;52.406;9.690;2023-10-08T13:47:17;17.90;95.50
64634;DHT22;51043;52.406;9.690;2023-10-08T13:49:49;17.60;95.30
64634;DHT22;51043;52.406;9.690;2023-10-08T13:52:21;17.60;95.50
64634;DHT22;51043;52.406;9.690;2023-10-08T13:54:56;17.70;96.60
64634;DHT22;51043;52.406;9.690;2023-10-08T13:57:27;17.90;95.90
64634;DHT22;51043;52.406;9.690;2023-10-08T14:00:00;18.10;95.80
64634;DHT22;51043;52.406;9.690;2023-10-08T14:02:30;18.30;95.80
64634;DHT22;51043;52.406;9.690;2023-10-08T14:04:58;18.40;92.20
64634;DHT22;51043;52.406;9.690;2023-10-08T14:07:31;18.20;93.70
64634;DHT22;51043;52.406;9.690;2023-10-08T14:10:02;18.30;93.50
64634;DHT22;51043;52.406;9.690;2023-10-08T14:12:35;18.30;93.40
64634;DHT22;51043;52.406;9.690;2023-10-08T14:15:05;18.40;92.60
64634;DHT22;51043;52.406;9.690;2023-10-08T14:17:39;18.20;93.00
64634;DHT22;51043;52.406;9.690;2023-10-08T14:20:12;17.80;93.30
64634;DHT22;51043;52.406;9.690;2023-10-08T14:22:42;17.50;95.70
64634;DHT22;51043;52.406;9.690;2023-10-08T14:25:11;17.10;93.70
64634;DHT22;51043;52.406;9.690;2023-10-08T14:27:40;16.90;95.30
64634;DHT22;51043;52.406;9.690;2023-10-08T14:30:22;16.70;95.00
64634;DHT22;51043;52.406;9.690;2023-10-08T14:33:01;16.50;95.20
64634;DHT22;51043;52.406;9.690;2023-10-08T14:35:31;16.30;96.30
64634;DHT22;51043;52.406;9.690;2023-10-08T14:38:24;16.20;96.20
64634;DHT22;51043;52.406;9.690;2023-10-08T14:41:15;16.10;98.40
64634;DHT22;51043;52.406;9.690;2023-10-08T14:44:00;16.10;98.00
64634;DHT22;51043;52.406;9.690;2023-10-08T14:46:31;16.10;98.30
64634;DHT22;51043;52.406;9.690;2023-10-08T14:49:01;16.00;98.50
64634;DHT22;51043;52.406;9.690;2023-10-08T14:51:30;16.10;99.50
64634;DHT22;51043;52.406;9.690;2023-10-08T14:54:06;16.10;98.90
64634;DHT22;51043;52.406;9.690;2023-10-08T14:56:35;16.30;99.70
64634;DHT22;51043;52.406;9.690;2023-10-08T14:59:06;16.40;99.10
64634;DHT22;51043;52.406;9.690;2023-10-08T15:01:34;16.60;99.80
64634;DHT22;51043;52.406;9.690;2023-10-08T15:04:06;16.80;98.90
64634;DHT22;51043;52.406;9.690;2023-10-08T15:06:38;17.00;97.60
64634;DHT22;51043;52.406;9.690;2023-10-08T15:09:08;17.10;97.00
64634;DHT22;51043;52.406;9.690;2023-10-08T15:11:36;17.10;97.90
64634;DHT22;51043;52.406;9.690;2023-10-08T15:14:05;17.00;96.90
64634;DHT22;51043;52.406;9.690;2023-10-08T15:16:37;17.10;97.30
64634;DHT22;51043;52.406;9.690;2023-10-08T15:19:07;16.80;96.20
64634;DHT22;51043;52.406;9.690;2023-10-08T15:21:41;16.90;96.30
64634;DHT22;51043;52.406;9.690;2023-10-08T15:24:16;16.90;97.70
64634;DHT22;51043;52.406;9.690;2023-10-08T15:26:45;16.90;97.20
64634;DHT22;51043;52.406;9.690;2023-10-08T15:29:22;16.90;97.80
64634;DHT22;51043;52.406;9.690;2023-10-08T15:31:53;16.80;98.50
64634;DHT22;51043;52.406;9.690;2023-10-08T15:34:24;16.60;98.10
64634;DHT22;51043;52.406;9.690;2023-10-08T15:37:00;16.50;98.60
64634;DHT22;51043;52.406;9.690;2023-10-08T15:39:31;16.30;99.80
64634;DHT22;51043;52.406;9.690;2023-10-08T15:42:00;16.00;99.90
64634;DHT22;51043;52.406;9.690;2023-10-08T15:44:28;15.70;99.90
64634;DHT22;51043;52.406;9.690;2023-10-08T15:46:57;15.40;99.90
64634;DHT22;51043;52.406;9.690;2023-10-08T15:49:25;15.20;99.90
64634;DHT22;51043;52.406;9.690;2023-10-08T15:51:55;15.10;99.90
64634;DHT22;51043;52.406;9.690;2023-10-08T15:54:24;15.00;99.90
64634;DHT22;51043;52.406;9.690;2023-10-08T15:56:55;15.00;99.90
64634;DHT22;51043;52.406;9.690;2023-10-08T15:59:23;15.00;99.90
64634;DHT22;51043;52.406;9.690;2023-10-08T16:01:56;14.90;99.90
64634;DHT22;51043;52.406;9.690;2023-10-08T16:04:25;14.80;99.90
64634;DHT22;51043;52.406;9.690;2023-10-08T16:06:55;14.80;99.90
64634;DHT22;51043;52.406;9.690;2023-10-08T16:09:25;14.70;99.90
64634;DHT22;51043;52.406;9.690;2023-10-08T16:11:56;14.60;99.90
64634;DHT22;51043;52.406;9.690;2023-10-08T16:14:27;14.60;99.90